Time;durP1;ratioP1;P1;durP2;ratioP2;P2;SDS_P1;SDS_P2;PMS_P1;PMS_P2;Temp;Humidity;BMP_temperature;BMP_pressure;BME280_temperature;BME280_humidity;BME280_pressure;Samples;Min_cycle;Max_cycle;Signal;HPM_P1;HPM_P2
2022/08/02 02:47:15;;;;;;;1.48;0.60;;;18.30;99.90;;;;;;5449790;23;82762;-72
2022/08/02 02:49:43;;;;;;;1.70;0.45;;;18.30;99.90;;;;;;4900131;28;82843;-72
2022/08/02 02:52:13;;;;;;;3.97;0.40;;;18.30;99.90;;;;;;4901192;28;82039;-72
2022/08/02 02:54:40;;;;;;;6.22;0.32;;;18.40;99.90;;;;;;4901696;28;81962;-70
2022/08/02 02:57:07;;;;;;;1.50;0.70;;;18.40;99.90;;;;;;4901902;28;81983;-70
2022/08/02 02:59:37;;;;;;;2.35;0.60;;;18.40;99.90;;;;;;4899362;28;81993;-73
2022/08/02 03:02:04;;;;;;;2.95;0.57;;;18.30;99.90;;;;;;4900863;28;81960;-71
2022/08/02 03:04:31;;;;;;;1.63;0.40;;;18.30;99.90;;;;;;4901454;28;81900;-70
2022/08/02 03:06:58;;;;;;;2.05;0.50;;;18.20;99.90;;;;;;4901680;28;81823;-72
2022/08/02 03:09:24;;;;;;;2.08;0.47;;;18.30;99.90;;;;;;4896472;28;82057;-72
2022/08/02 03:11:52;;;;;;;1.38;0.30;;;18.30;99.90;;;;;;4899246;28;83142;-70
2022/08/02 03:14:18;;;;;;;3.42;0.30;;;18.20;99.90;;;;;;4900634;28;83344;-70
2022/08/02 03:16:48;;;;;;;1.80;0.50;;;18.20;99.90;;;;;;4901884;28;82618;-69
2022/08/02 03:19:15;;;;;;;1.10;0.20;;;18.30;99.90;;;;;;4899584;28;82211;-70
2022/08/02 03:21:45;;;;;;;1.02;0.30;;;18.30;99.90;;;;;;4901576;28;82492;-71
2022/08/02 03:24:11;;;;;;;1.02;0.40;;;18.30;99.90;;;;;;4899618;28;82459;-71
2022/08/02 03:26:38;;;;;;;4.13;0.38;;;18.30;99.90;;;;;;4882658;28;81861;-71
2022/08/02 03:29:04;;;;;;;1.20;0.30;;;18.20;99.90;;;;;;4897134;28;81907;-72
2022/08/02 03:31:30;;;;;;;1.88;0.45;;;18.30;99.90;;;;;;4901626;28;82005;-71
2022/08/02 03:33:58;;;;;;;2.40;0.43;;;18.30;99.90;;;;;;4884577;28;82140;-71
2022/08/02 03:36:26;;;;;;;1.90;0.30;;;18.30;99.90;;;;;;4888699;28;82790;-71
2022/08/02 03:38:53;;;;;;;1.65;0.40;;;18.20;99.90;;;;;;4896535;28;83047;-70
2022/08/02 03:41:20;;;;;;;1.40;0.30;;;18.20;99.90;;;;;;4901497;28;82190;-70
2022/08/02 03:43:47;;;;;;;3.08;0.30;;;18.30;99.90;;;;;;4885550;28;83486;-71
2022/08/02 03:46:17;;;;;;;2.63;0.32;;;18.30;99.90;;;;;;4882373;28;81983;-72
2022/08/02 03:48:43;;;;;;;1.52;0.38;;;18.20;99.90;;;;;;4882102;28;83129;-71
2022/08/02 03:51:10;;;;;;;1.75;0.40;;;18.20;99.90;;;;;;4895520;28;82342;-70
2022/08/02 03:53:36;;;;;;;2.03;0.40;;;18.10;99.90;;;;;;4903233;28;82009;-71
2022/08/02 03:56:02;;;;;;;2.03;0.40;;;18.20;99.90;;;;;;4904897;28;81444;-72
2022/08/02 03:58:28;;;;;;;2.67;0.70;;;18.20;99.90;;;;;;4904788;28;82282;-70
2022/08/02 04:00:57;;;;;;;1.55;0.30;;;18.10;99.90;;;;;;4904328;28;81926;-71
2022/08/02 04:03:23;;;;;;;3.08;0.50;;;18.10;99.90;;;;;;4900639;28;83288;-71
2022/08/02 04:05:49;;;;;;;2.10;0.50;;;18.10;99.90;;;;;;4897879;28;82025;-72
2022/08/02 04:08:15;;;;;;;3.60;0.40;;;18.20;99.90;;;;;;4904157;28;82201;-70
2022/08/02 04:13:28;;;;;;;2.17;0.40;;;18.10;99.90;;;;;;4904503;28;82666;-71
2022/08/02 04:15:58;;;;;;;1.27;0.40;;;18.20;99.90;;;;;;4903503;28;82083;-72
2022/08/02 04:18:30;;;;;;;2.45;0.35;;;18.20;99.90;;;;;;4903860;28;83224;-70
2022/08/02 04:20:59;;;;;;;2.05;0.45;;;18.20;99.90;;;;;;4904331;28;81604;-71
2022/08/02 04:23:26;;;;;;;1.25;0.40;;;18.20;99.90;;;;;;4903480;28;81768;-70
2022/08/02 04:25:54;;;;;;;2.78;0.40;;;18.30;99.90;;;;;;4904194;28;81843;-71
2022/08/02 04:28:20;;;;;;;1.50;0.30;;;18.40;99.90;;;;;;4901688;28;83753;-71
2022/08/02 04:30:48;;;;;;;1.65;0.50;;;18.70;99.90;;;;;;4904224;28;82089;-73
2022/08/02 04:33:14;;;;;;;1.52;0.40;;;19.50;99.90;;;;;;4903528;28;82028;-71
2022/08/02 04:35:40;;;;;;;1.10;0.38;;;20.20;99.90;;;;;;4903893;28;82050;-72
2022/08/02 04:38:06;;;;;;;1.85;0.40;;;20.90;99.90;;;;;;4903765;28;82168;-70
2022/08/02 04:40:32;;;;;;;2.00;0.30;;;21.50;99.90;;;;;;4903409;28;82249;-74
2022/08/02 04:42:57;;;;;;;1.00;0.30;;;21.90;99.90;;;;;;4903514;28;81944;-72
2022/08/02 04:45:24;;;;;;;1.85;0.30;;;22.50;99.90;;;;;;4903771;28;81843;-73
2022/08/02 04:47:50;;;;;;;2.00;0.43;;;23.10;99.60;;;;;;4903341;28;82108;-71
2022/08/02 04:50:15;;;;;;;2.65;0.65;;;23.50;95.40;;;;;;4902783;28;83979;-71
2022/08/02 04:52:41;;;;;;;2.78;0.52;;;23.80;91.90;;;;;;4901628;28;82936;-71
2022/08/02 04:55:07;;;;;;;2.72;0.30;;;24.30;92.10;;;;;;4902951;28;82310;-73
2022/08/02 05:00:17;;;;;;;1.48;0.32;;;25.20;81.50;;;;;;4902812;28;81874;-72
2022/08/02 05:02:43;;;;;;;1.00;0.40;;;25.60;82.40;;;;;;4903452;28;82432;-71
2022/08/02 05:05:08;;;;;;;3.13;0.43;;;25.70;78.00;;;;;;4901122;28;82073;-71
2022/08/02 05:07:34;;;;;;;2.80;0.60;;;25.90;78.60;;;;;;4902613;28;82561;-73
2022/08/02 05:10:00;;;;;;;0.85;0.25;;;26.50;76.50;;;;;;4902985;28;81676;-73
2022/08/02 05:12:25;;;;;;;1.02;0.43;;;26.80;74.90;;;;;;4902838;28;81639;-73
2022/08/02 05:14:51;;;;;;;1.77;0.55;;;27.20;69.60;;;;;;4903858;28;81916;-70
2022/08/02 05:17:17;;;;;;;1.60;0.38;;;26.40;71.20;;;;;;4901889;28;83362;-71
2022/08/02 05:19:42;;;;;;;1.10;0.40;;;26.20;70.10;;;;;;4903526;28;82284;-71
2022/08/02 05:22:08;;;;;;;1.55;0.47;;;26.00;72.30;;;;;;4902518;28;82000;-72
2022/08/02 05:24:34;;;;;;;2.35;0.40;;;26.70;73.30;;;;;;4902700;28;81869;-72
2022/08/02 05:26:59;;;;;;;2.45;0.70;;;27.10;67.90;;;;;;4902932;28;83622;-71
2022/08/02 05:29:25;;;;;;;1.90;0.73;;;26.50;71.20;;;;;;4902176;28;82442;-71
2022/08/02 05:31:51;;;;;;;1.10;0.50;;;27.00;70.10;;;;;;4902059;28;81939;-71
2022/08/02 05:34:17;;;;;;;3.17;0.77;;;27.50;67.50;;;;;;4905151;28;81562;-72
2022/08/02 05:36:42;;;;;;;1.70;0.63;;;27.60;66.50;;;;;;4903940;28;83176;-72
2022/08/02 05:39:08;;;;;;;1.30;0.55;;;27.00;68.70;;;;;;4902200;28;81912;-74
2022/08/02 05:41:34;;;;;;;3.05;0.77;;;26.80;71.20;;;;;;4902089;28;82861;-71
2022/08/02 05:44:00;;;;;;;2.17;0.50;;;27.60;68.00;;;;;;4902630;28;81883;-71
2022/08/02 05:46:26;;;;;;;1.42;0.82;;;27.20;66.80;;;;;;4903315;28;82291;-72
2022/08/02 05:48:52;;;;;;;2.00;0.63;;;27.60;66.40;;;;;;4904241;28;82273;-72
2022/08/02 05:52:03;;;;;;;3.08;1.02;;;27.20;69.00;;;;;;4885115;28;81994;-72
2022/08/02 05:54:49;;;;;;;2.88;0.63;;;27.70;69.60;;;;;;4874372;28;82911;-73
2022/08/02 05:57:37;;;;;;;2.15;0.60;;;29.20;63.00;;;;;;4885935;28;83121;-72
2022/08/02 06:00:08;;;;;;;2.58;1.27;;;29.70;61.30;;;;;;4903620;28;81986;-73
2022/08/02 06:02:59;;;;;;;1.25;0.52;;;30.90;57.00;;;;;;4902773;28;81763;-71
2022/08/02 06:05:27;;;;;;;1.40;0.80;;;32.40;59.50;;;;;;4903362;28;81800;-74
2022/08/02 06:07:57;;;;;;;1.52;1.08;;;33.10;52.60;;;;;;4903087;28;82754;-71
2022/08/02 06:10:25;;;;;;;1.70;0.93;;;33.50;52.70;;;;;;4903138;28;82867;-71
2022/08/02 06:13:11;;;;;;;;;;;34.50;51.50;;;;;;4889848;28;82199;-72
2022/08/02 06:15:39;;;;;;;2.45;1.23;;;35.70;49.60;;;;;;4901340;28;82066;-71
2022/08/02 06:18:07;;;;;;;3.20;1.10;;;36.60;47.60;;;;;;4901963;28;81743;-72
2022/08/02 06:20:37;;;;;;;3.35;1.35;;;36.40;46.70;;;;;;4903383;28;82528;-72
2022/08/02 06:23:04;;;;;;;2.83;1.33;;;36.50;45.90;;;;;;4903615;28;82610;-72
2022/08/02 06:25:31;;;;;;;2.42;0.98;;;36.00;48.50;;;;;;4903669;28;81419;-70
2022/08/02 06:27:59;;;;;;;2.30;0.98;;;36.40;47.80;;;;;;4900580;28;81920;-69
2022/08/02 06:30:24;;;;;;;3.30;1.98;;;36.90;49.00;;;;;;4902887;28;83024;-74
2022/08/02 06:32:51;;;;;;;2.15;1.13;;;38.00;47.90;;;;;;4903251;28;82926;-70
2022/08/02 06:35:17;;;;;;;2.58;1.27;;;38.00;46.60;;;;;;4903492;28;82385;-69
2022/08/02 06:37:58;;;;;;;24.65;3.05;;;38.30;45.70;;;;;;4899764;28;83009;-71
2022/08/02 06:40:30;;;;;;;8.57;1.67;;;39.30;43.10;;;;;;4903150;28;82394;-73
2022/08/02 06:43:34;;;;;;;2.38;1.48;;;38.90;44.10;;;;;;4902641;28;82113;-71
2022/08/02 06:46:00;;;;;;;2.40;1.40;;;39.70;43.30;;;;;;4879571;28;82085;-71
2022/08/02 06:48:26;;;;;;;9.40;1.85;;;40.30;43.40;;;;;;4883948;28;82047;-70
2022/08/02 06:50:52;;;;;;;8.57;1.83;;;40.30;41.60;;;;;;4902256;28;81961;-72
2022/08/02 06:53:18;;;;;;;1.90;1.40;;;40.60;40.10;;;;;;4903422;28;82014;-72
2022/08/02 06:55:44;;;;;;;3.22;1.02;;;39.90;40.20;;;;;;4902311;28;81951;-75
2022/08/02 06:58:11;;;;;;;3.15;1.50;;;40.40;39.70;;;;;;4902407;28;83543;-73
2022/08/02 07:00:37;;;;;;;2.13;1.45;;;40.40;41.30;;;;;;4902655;28;81974;-75
2022/08/02 07:03:04;;;;;;;3.05;1.35;;;40.40;41.80;;;;;;4901396;28;82058;-74
2022/08/02 07:05:29;;;;;;;1.90;1.50;;;40.70;39.20;;;;;;4903445;28;82667;-74
2022/08/02 07:07:55;;;;;;;4.55;2.08;;;39.70;40.40;;;;;;4903264;28;82255;-72
2022/08/02 07:10:21;;;;;;;1.77;1.40;;;38.90;41.60;;;;;;4903026;28;82975;-71
2022/08/02 07:12:47;;;;;;;3.78;1.88;;;39.10;42.30;;;;;;4901611;28;81914;-73
2022/08/02 07:15:15;;;;;;;4.70;1.95;;;40.30;40.40;;;;;;4901988;28;81417;-74
2022/08/02 07:17:40;;;;;;;2.72;1.40;;;41.80;38.80;;;;;;4902381;28;82198;-74
2022/08/02 07:20:08;;;;;;;2.83;2.28;;;42.00;37.90;;;;;;4902651;28;82873;-72
2022/08/02 07:22:34;;;;;;;1.42;1.20;;;41.40;38.70;;;;;;4901297;28;82922;-71
2022/08/02 07:25:00;;;;;;;2.65;1.58;;;41.50;38.90;;;;;;4902361;28;82019;-71
2022/08/02 07:27:27;;;;;;;3.85;1.77;;;41.10;37.20;;;;;;4903999;28;82019;-73
2022/08/02 07:29:53;;;;;;;2.08;1.80;;;40.50;39.60;;;;;;4903901;28;81973;-72
2022/08/02 07:32:22;;;;;;;2.75;1.58;;;40.50;39.60;;;;;;4905156;28;81812;-71
2022/08/02 07:34:49;;;;;;;2.35;1.33;;;40.40;39.90;;;;;;4903902;28;81936;-76
2022/08/02 07:37:14;;;;;;;1.98;1.45;;;40.30;39.40;;;;;;4904989;28;82637;-72
2022/08/02 07:39:40;;;;;;;2.33;2.10;;;40.60;39.80;;;;;;4905276;28;82622;-72
2022/08/02 07:42:06;;;;;;;3.95;1.80;;;41.20;39.00;;;;;;4903285;28;82012;-70
2022/08/02 07:44:33;;;;;;;3.33;2.10;;;41.60;40.00;;;;;;4905380;28;82304;-73
2022/08/02 07:47:03;;;;;;;3.38;2.45;;;41.90;39.90;;;;;;4904486;28;82892;-73
2022/08/02 07:49:29;;;;;;;4.00;1.95;;;43.80;37.70;;;;;;4904378;28;83410;-72
2022/08/02 07:51:56;;;;;;;2.80;1.98;;;44.10;37.00;;;;;;4904032;28;81878;-70
2022/08/02 07:54:22;;;;;;;7.60;2.83;;;43.70;37.50;;;;;;4904823;28;82613;-74
2022/08/02 07:56:48;;;;;;;2.95;2.58;;;44.20;38.00;;;;;;4904423;28;82936;-71
2022/08/02 07:59:14;;;;;;;2.75;2.53;;;45.10;36.90;;;;;;4905074;28;82780;-70
2022/08/02 08:01:40;;;;;;;3.88;2.75;;;45.40;36.30;;;;;;4904215;28;81705;-73
2022/08/02 08:04:06;;;;;;;4.60;3.72;;;45.20;34.60;;;;;;4902506;28;82307;-70
2022/08/02 08:06:32;;;;;;;3.42;2.40;;;44.60;37.40;;;;;;4905134;28;82318;-72
2022/08/02 08:08:58;;;;;;;4.18;3.78;;;44.90;35.30;;;;;;4904704;28;82244;-72
2022/08/02 08:11:25;;;;;;;5.78;5.25;;;45.90;35.40;;;;;;4905134;28;83203;-70
2022/08/02 08:13:50;;;;;;;5.97;3.13;;;47.00;34.30;;;;;;4904358;28;82692;-74
2022/08/02 08:16:16;;;;;;;4.15;3.65;;;47.30;35.00;;;;;;4904858;28;82658;-71
2022/08/02 08:18:42;;;;;;;4.00;3.38;;;48.30;34.40;;;;;;4902281;28;82699;-71
2022/08/02 08:21:08;;;;;;;4.53;4.13;;;48.60;33.40;;;;;;4904483;28;81761;-71
2022/08/02 08:23:35;;;;;;;5.00;3.10;;;47.50;32.90;;;;;;4904971;28;82073;-70
2022/08/02 08:26:01;;;;;;;2.85;2.13;;;45.20;34.50;;;;;;4904775;28;81790;-72
2022/08/02 08:28:27;;;;;;;3.15;2.85;;;44.40;36.60;;;;;;4904595;28;81583;-71
2022/08/02 08:30:53;;;;;;;3.97;3.50;;;43.50;36.20;;;;;;4905181;28;81762;-70
2022/08/02 08:33:18;;;;;;;3.08;2.70;;;42.40;37.80;;;;;;4905485;28;81803;-72
2022/08/02 08:35:44;;;;;;;2.97;2.25;;;42.80;38.50;;;;;;4904039;28;83596;-73
2022/08/02 08:38:10;;;;;;;3.08;2.78;;;43.10;37.90;;;;;;4903885;28;82069;-72
2022/08/02 08:40:36;;;;;;;3.60;3.28;;;44.60;36.30;;;;;;4902791;28;81876;-70
2022/08/02 08:43:03;;;;;;;4.55;2.95;;;45.70;35.60;;;;;;4901302;28;83668;-74
2022/08/02 08:45:28;;;;;;;4.45;4.05;;;46.50;35.50;;;;;;4898821;28;82263;-73
2022/08/02 08:48:09;;;;;;;3.97;3.58;;;47.20;33.60;;;;;;4892949;28;83224;-73
2022/08/02 08:50:36;;;;;;;4.82;4.38;;;47.10;33.50;;;;;;4903847;28;83127;-73
2022/08/02 08:53:08;;;;;;;3.60;3.17;;;46.10;35.30;;;;;;4903750;28;81852;-75
2022/08/02 08:55:35;;;;;;;3.70;3.40;;;46.10;35.50;;;;;;4904253;28;81800;-74
2022/08/02 08:58:03;;;;;;;6.10;4.20;;;45.10;35.40;;;;;;4903791;28;82541;-71
2022/08/02 09:00:31;;;;;;;6.75;3.97;;;45.10;35.60;;;;;;4903775;28;82709;-73
2022/08/02 09:02:57;;;;;;;4.63;4.22;;;46.40;34.90;;;;;;4903449;28;82075;-71
2022/08/02 09:05:24;;;;;;;4.32;3.60;;;48.00;33.80;;;;;;4903444;28;82323;-73
2022/08/02 09:07:51;;;;;;;5.53;4.38;;;48.40;32.80;;;;;;4903868;28;83719;-71
2022/08/02 09:10:43;;;;;;;4.85;4.45;;;48.40;33.20;;;;;;4903743;28;81882;-72
2022/08/02 09:13:19;;;;;;;4.75;4.35;;;49.10;32.80;;;;;;4903150;28;82342;-70
2022/08/02 09:15:56;;;;;;;5.38;4.88;;;49.60;33.30;;;;;;4903416;28;82195;-74
2022/08/02 09:18:38;;;;;;;4.38;3.97;;;49.90;32.10;;;;;;4903195;28;85547;-73
2022/08/02 09:21:08;;;;;;;5.40;4.88;;;49.80;32.00;;;;;;4903826;28;82215;-71
2022/08/02 09:23:38;;;;;;;4.97;4.22;;;49.80;31.80;;;;;;4903210;28;82252;-73
2022/08/02 09:26:14;;;;;;;4.50;4.10;;;49.30;32.50;;;;;;4903559;28;82843;-74
2022/08/02 09:28:43;;;;;;;6.18;5.07;;;47.60;34.30;;;;;;4903518;28;82904;-71
2022/08/02 09:31:11;;;;;;;6.68;6.10;;;45.80;34.20;;;;;;4903239;28;82353;-77
2022/08/02 09:33:39;;;;;;;5.72;5.20;;;46.60;35.60;;;;;;4903021;28;82696;-74
2022/08/02 09:36:07;;;;;;;6.30;5.80;;;46.80;33.60;;;;;;4903817;28;81961;-71
2022/08/02 09:38:33;;;;;;;;;;;47.00;34.00;;;;;;4903800;28;82062;-72
2022/08/02 09:40:59;;;;;;;6.60;5.97;;;48.00;33.60;;;;;;4904838;28;81940;-73
2022/08/02 09:43:42;;;;;;;4.55;4.18;;;49.20;32.90;;;;;;4902766;28;83636;-74
2022/08/02 09:46:13;;;;;;;5.97;5.47;;;48.90;32.30;;;;;;4885175;28;83173;-71
2022/08/02 09:48:46;;;;;;;6.18;5.65;;;48.80;31.70;;;;;;4902242;28;82210;-71
2022/08/02 09:51:15;;;;;;;5.45;5.05;;;47.80;33.50;;;;;;4902002;28;84279;-73
2022/08/02 09:53:41;;;;;;;5.72;4.78;;;46.80;33.20;;;;;;4901194;28;81872;-73
2022/08/02 09:56:07;;;;;;;5.70;5.20;;;47.00;33.70;;;;;;4899675;28;82186;-72
2022/08/02 09:58:38;;;;;;;4.93;4.50;;;46.20;34.40;;;;;;4902745;28;82449;-72
2022/08/02 10:01:04;;;;;;;5.07;4.57;;;46.90;34.60;;;;;;4901870;28;82360;-71
2022/08/02 10:03:29;;;;;;;5.45;4.45;;;46.90;33.50;;;;;;4897857;28;81965;-77
2022/08/02 10:06:00;;;;;;;3.83;3.53;;;46.40;34.20;;;;;;4883867;28;82040;-71
2022/08/02 10:08:27;;;;;;;4.50;4.07;;;45.70;34.90;;;;;;4891473;28;82936;-72
2022/08/02 10:11:00;;;;;;;4.13;3.80;;;46.60;33.70;;;;;;4903125;28;81912;-72
2022/08/02 10:13:35;;;;;;;4.60;4.22;;;46.20;33.50;;;;;;4903139;28;82137;-71
2022/08/02 10:16:03;;;;;;;4.43;4.03;;;44.00;35.40;;;;;;4903045;28;83587;-74
2022/08/02 10:18:29;;;;;;;3.78;3.45;;;42.20;36.50;;;;;;4902947;28;83813;-70
2022/08/02 10:20:56;;;;;;;3.65;3.35;;;41.50;38.30;;;;;;4902447;28;82082;-71
2022/08/02 10:23:26;;;;;;;3.17;2.67;;;39.00;41.40;;;;;;4902076;28;82232;-71
2022/08/02 10:25:53;;;;;;;4.03;2.50;;;37.70;41.40;;;;;;4903468;28;84483;-72
2022/08/02 10:28:29;;;;;;;2.80;2.58;;;36.20;44.20;;;;;;4903501;28;82533;-71
2022/08/02 10:30:56;;;;;;;3.50;2.75;;;35.10;46.50;;;;;;4903508;28;81737;-70
2022/08/02 10:33:25;;;;;;;2.38;2.05;;;34.60;48.20;;;;;;4901233;28;83683;-74
2022/08/02 10:35:56;;;;;;;3.38;1.88;;;32.90;51.70;;;;;;4902008;28;82192;-71
2022/08/02 10:38:22;;;;;;;1.80;1.10;;;32.00;51.00;;;;;;4902677;28;81839;-71
2022/08/02 10:40:53;;;;;;;2.92;1.23;;;31.40;50.20;;;;;;4899771;28;82963;-72
2022/08/02 10:43:31;;;;;;;3.38;1.38;;;31.00;55.40;;;;;;4902297;28;81777;-73
2022/08/02 10:46:26;;;;;;;2.47;1.60;;;30.60;55.70;;;;;;4894964;28;81943;-72
2022/08/02 10:49:07;;;;;;;1.95;1.50;;;30.60;57.30;;;;;;4878908;28;82287;-71
2022/08/02 10:52:01;;;;;;;2.53;1.48;;;30.80;55.90;;;;;;4902311;28;82066;-73
2022/08/02 10:54:34;;;;;;;3.92;0.88;;;30.00;57.90;;;;;;4896166;28;82452;-70
2022/08/02 10:57:01;;;;;;;2.47;0.75;;;30.00;57.60;;;;;;4901949;28;82324;-71
2022/08/02 10:59:34;;;;;;;1.83;1.27;;;29.80;58.10;;;;;;4902427;28;81912;-71
2022/08/02 11:02:01;;;;;;;3.63;0.98;;;29.80;55.70;;;;;;4902143;28;81901;-73
2022/08/02 11:04:50;;;;;;;2.47;0.90;;;29.40;60.80;;;;;;4902635;28;82379;-71
2022/08/02 11:07:17;;;;;;;1.42;0.63;;;29.50;56.20;;;;;;4880758;28;83627;-70
2022/08/02 11:09:45;;;;;;;1.70;0.63;;;29.50;56.20;;;;;;4901135;28;82825;-71
2022/08/02 11:12:14;;;;;;;3.47;1.10;;;29.70;57.80;;;;;;4900773;28;82245;-72
2022/08/02 11:14:42;;;;;;;1.45;0.77;;;30.10;58.30;;;;;;4902082;28;82671;-73
2022/08/02 11:17:16;;;;;;;1.63;0.70;;;30.20;58.10;;;;;;4903473;28;81974;-71
2022/08/02 11:20:07;;;;;;;3.42;1.05;;;30.20;57.20;;;;;;4902926;28;82858;-71
2022/08/02 11:22:34;;;;;;;4.65;1.50;;;29.90;56.50;;;;;;4898066;28;82035;-71
2022/08/02 11:25:22;;;;;;;4.05;0.90;;;29.60;59.70;;;;;;4903189;28;81640;-70
2022/08/02 11:27:54;;;;;;;1.92;0.90;;;29.50;57.80;;;;;;4901761;28;82187;-74
2022/08/02 11:30:21;;;;;;;2.63;0.63;;;29.60;56.00;;;;;;4902614;28;81831;-71
2022/08/02 11:32:48;;;;;;;1.55;0.82;;;29.80;54.50;;;;;;4900769;28;82748;-76
2022/08/02 11:35:14;;;;;;;2.72;0.80;;;29.80;54.70;;;;;;4883295;28;81881;-72
2022/08/02 11:37:43;;;;;;;3.38;0.95;;;29.90;56.20;;;;;;4900449;28;82256;-71
2022/08/02 11:40:13;;;;;;;1.42;0.75;;;29.80;58.20;;;;;;4902770;28;82292;-71
2022/08/02 11:42:43;;;;;;;3.65;0.93;;;29.40;57.60;;;;;;4903155;28;81877;-70
2022/08/02 11:45:10;;;;;;;1.52;0.82;;;29.40;59.20;;;;;;4899060;28;82145;-71
2022/08/02 11:47:47;;;;;;;1.73;0.93;;;29.50;57.10;;;;;;4900811;28;83103;-73
2022/08/02 11:50:13;;;;;;;2.38;0.90;;;29.40;59.00;;;;;;4903327;28;81543;-71
2022/08/02 11:52:38;;;;;;;3.08;0.60;;;29.60;56.80;;;;;;4902322;28;81841;-76
2022/08/02 11:55:06;;;;;;;3.10;1.17;;;29.60;57.60;;;;;;4903096;28;82005;-71
2022/08/02 11:57:33;;;;;;;2.15;0.73;;;29.40;57.90;;;;;;4901709;28;84881;-71
2022/08/02 11:59:59;;;;;;;1.67;0.82;;;29.30;59.90;;;;;;4903792;28;82297;-71
2022/08/02 12:02:32;;;;;;;1.42;0.95;;;29.30;58.90;;;;;;4902474;28;82230;-73
2022/08/02 12:05:01;;;;;;;1.80;1.35;;;29.30;60.70;;;;;;4902355;28;82022;-73
2022/08/02 12:07:32;;;;;;;1.10;0.60;;;29.20;58.80;;;;;;4900310;28;83026;-73
2022/08/02 12:10:07;;;;;;;2.95;0.80;;;29.30;58.60;;;;;;4901551;28;82800;-73
2022/08/02 12:12:45;;;;;;;2.60;0.90;;;29.20;57.70;;;;;;4902333;28;82254;-71
2022/08/02 12:15:12;;;;;;;2.30;0.82;;;29.30;55.20;;;;;;4904694;28;81357;-71
2022/08/02 12:20:35;;;;;;;1.70;0.88;;;29.30;55.80;;;;;;4903269;28;83578;-72
2022/08/02 12:23:02;;;;;;;1.00;0.50;;;29.20;57.90;;;;;;4900426;28;82934;-75
2022/08/02 12:25:30;;;;;;;1.25;0.65;;;29.20;58.10;;;;;;4905884;28;82197;-73
2022/08/02 12:28:12;;;;;;;1.77;0.93;;;29.40;54.70;;;;;;4903698;28;83085;-72
2022/08/02 12:30:50;;;;;;;3.17;0.77;;;29.40;54.70;;;;;;4904928;28;82894;-74
2022/08/02 12:33:16;;;;;;;1.25;0.70;;;29.10;57.10;;;;;;4905142;28;81887;-73
2022/08/02 12:35:41;;;;;;;1.58;0.82;;;29.20;56.70;;;;;;4904714;28;82806;-72
2022/08/02 12:38:11;;;;;;;1.95;1.40;;;29.30;59.20;;;;;;4905019;28;82383;-71
2022/08/02 12:40:37;;;;;;;2.42;0.90;;;29.30;58.10;;;;;;4905086;28;82114;-73
2022/08/02 12:43:07;;;;;;;1.73;1.02;;;29.40;57.90;;;;;;4905018;28;82343;-75
2022/08/02 12:45:48;;;;;;;2.08;0.90;;;29.20;57.70;;;;;;4902584;28;83340;-75
2022/08/02 12:48:15;;;;;;;1.30;0.60;;;29.00;60.80;;;;;;4904094;28;82843;-70
2022/08/02 12:50:41;;;;;;;3.45;0.70;;;28.90;59.90;;;;;;4905100;28;83338;-72
2022/08/02 12:53:16;;;;;;;2.75;0.77;;;29.00;60.20;;;;;;4905202;28;81884;-71
2022/08/02 12:55:56;;;;;;;2.65;0.80;;;29.00;57.90;;;;;;4903476;28;81975;-73
2022/08/02 12:58:22;;;;;;;2.97;0.70;;;29.10;57.50;;;;;;4903647;28;81787;-71
2022/08/02 13:00:53;;;;;;;1.98;1.05;;;29.30;58.90;;;;;;4900592;28;82170;-73
2022/08/02 13:03:19;;;;;;;1.27;0.60;;;29.60;57.40;;;;;;4903779;28;82198;-72
2022/08/02 13:05:45;;;;;;;3.03;0.73;;;29.60;58.30;;;;;;4903951;28;81572;-73
2022/08/02 13:08:13;;;;;;;3.92;1.33;;;29.70;57.30;;;;;;4904192;28;82287;-71
2022/08/02 13:10:38;;;;;;;2.20;1.23;;;29.60;55.40;;;;;;4902470;28;83251;-71
2022/08/02 13:13:04;;;;;;;2.00;0.65;;;29.50;55.70;;;;;;4903304;28;83062;-73
2022/08/02 13:15:31;;;;;;;2.80;0.73;;;29.10;55.00;;;;;;4902461;28;81833;-71
2022/08/02 13:17:57;;;;;;;1.40;0.75;;;29.20;55.60;;;;;;4903944;28;82187;-72
2022/08/02 13:20:26;;;;;;;2.45;0.80;;;29.30;54.80;;;;;;4903432;28;81862;-71
2022/08/02 13:22:53;;;;;;;1.42;0.65;;;29.50;53.50;;;;;;4903316;28;81948;-72
2022/08/02 13:25:21;;;;;;;1.83;0.80;;;29.40;54.40;;;;;;4904020;28;81991;-71
2022/08/02 13:27:50;;;;;;;2.63;0.93;;;29.00;55.50;;;;;;4903735;28;81866;-76
2022/08/02 13:30:16;;;;;;;2.08;0.88;;;29.10;54.40;;;;;;4901968;28;82821;-73
2022/08/02 13:32:42;;;;;;;3.45;0.50;;;28.90;56.50;;;;;;4904041;28;81937;-74
2022/08/02 13:35:08;;;;;;;3.55;0.77;;;28.90;55.80;;;;;;4902993;28;82020;-72
2022/08/02 13:37:34;;;;;;;2.28;1.05;;;29.00;56.10;;;;;;4902532;28;83251;-73
2022/08/02 13:40:01;;;;;;;1.83;1.00;;;29.00;55.70;;;;;;4903718;28;82427;-72
2022/08/02 13:42:26;;;;;;;2.00;1.23;;;28.80;55.90;;;;;;4902911;28;82224;-71
2022/08/02 13:44:52;;;;;;;1.63;0.73;;;29.00;55.30;;;;;;4901832;28;82107;-74
2022/08/02 13:47:18;;;;;;;1.25;0.85;;;29.20;55.80;;;;;;4902160;28;82367;-71
2022/08/02 13:49:43;;;;;;;2.20;0.75;;;29.30;53.60;;;;;;4902996;28;81931;-73
2022/08/02 13:52:10;;;;;;;1.20;0.98;;;29.30;54.50;;;;;;4902932;28;82238;-72
2022/08/02 13:54:35;;;;;;;2.17;0.85;;;29.40;55.30;;;;;;4903840;28;81790;-76
2022/08/02 13:57:01;;;;;;;1.20;0.52;;;29.50;55.00;;;;;;4902772;28;83116;-74
2022/08/02 13:59:27;;;;;;;1.65;0.70;;;29.60;54.70;;;;;;4902869;28;82245;-70
2022/08/02 14:01:55;;;;;;;1.58;0.52;;;29.60;52.80;;;;;;4902997;28;82859;-72
2022/08/02 14:04:21;;;;;;;2.28;1.30;;;29.10;53.40;;;;;;4902977;28;81928;-73
2022/08/02 14:06:47;;;;;;;1.42;0.93;;;29.20;53.80;;;;;;4902643;28;83116;-72
2022/08/02 14:09:13;;;;;;;1.40;0.70;;;29.20;55.20;;;;;;4903679;28;81877;-73
2022/08/02 14:11:38;;;;;;;2.08;0.82;;;29.20;53.40;;;;;;4901330;28;81923;-70
2022/08/02 14:14:04;;;;;;;3.45;0.93;;;29.30;54.00;;;;;;4901360;28;82093;-72
2022/08/02 14:16:30;;;;;;;1.80;0.63;;;29.30;52.50;;;;;;4902425;28;82662;-71
2022/08/02 14:18:56;;;;;;;2.08;1.45;;;29.40;54.20;;;;;;4904825;28;81968;-72
2022/08/02 14:21:22;;;;;;;1.23;0.70;;;29.30;54.20;;;;;;4902931;28;81832;-72
2022/08/02 14:23:47;;;;;;;1.70;1.00;;;29.10;51.00;;;;;;4903285;28;82163;-71
2022/08/02 14:26:13;;;;;;;3.65;1.10;;;29.00;54.60;;;;;;4903212;28;84362;-70
2022/08/02 14:28:39;;;;;;;1.10;0.70;;;29.10;54.30;;;;;;4903413;28;84499;-70
2022/08/02 14:31:05;;;;;;;1.90;0.85;;;29.10;53.20;;;;;;4901333;28;82371;-73
2022/08/02 14:33:31;;;;;;;4.90;1.30;;;29.20;52.80;;;;;;4902728;28;81806;-72
2022/08/02 14:35:56;;;;;;;2.92;0.80;;;29.20;53.10;;;;;;4901133;28;82089;-71
2022/08/02 14:38:23;;;;;;;2.70;0.85;;;29.30;51.30;;;;;;4902319;28;82099;-76
2022/08/02 14:40:49;;;;;;;2.35;1.17;;;29.30;53.30;;;;;;4902804;28;81830;-70
2022/08/02 14:44:02;;;;;;;1.40;0.60;;;29.30;49.00;;;;;;4903228;28;82146;-71
2022/08/02 14:46:00;;;;;;;2.17;0.65;;;29.00;47.50;;;;;;4895031;28;81923;-74
2022/08/02 14:48:26;;;;;;;1.80;0.80;;;29.10;49.40;;;;;;4883588;28;81939;-70
2022/08/02 14:50:52;;;;;;;3.10;0.90;;;29.10;46.40;;;;;;4899536;28;82869;-73
2022/08/02 14:53:18;;;;;;;2.17;0.90;;;29.20;49.60;;;;;;4902108;28;82716;-70
2022/08/02 14:55:43;;;;;;;2.13;1.20;;;29.20;49.70;;;;;;4902178;28;82617;-74
2022/08/02 14:58:10;;;;;;;2.53;0.63;;;29.30;49.70;;;;;;4902953;28;82197;-73
2022/08/02 15:00:37;;;;;;;1.83;0.95;;;29.20;48.90;;;;;;4902177;28;82224;-72
2022/08/02 15:03:02;;;;;;;2.65;0.90;;;29.10;48.50;;;;;;4901582;28;82297;-70
2022/08/02 15:05:28;;;;;;;2.10;0.70;;;29.00;50.40;;;;;;4901792;28;82050;-70
2022/08/02 15:07:54;;;;;;;1.50;0.60;;;29.00;51.40;;;;;;4902655;28;82491;-72
2022/08/02 15:10:19;;;;;;;1.92;0.95;;;28.80;50.80;;;;;;4901745;28;82642;-70
2022/08/02 15:12:45;;;;;;;3.67;0.75;;;29.00;49.60;;;;;;4902301;28;82186;-73
2022/08/02 15:15:11;;;;;;;3.92;1.20;;;28.80;50.50;;;;;;4901035;28;83549;-72
2022/08/02 15:17:36;;;;;;;2.13;1.15;;;28.90;51.70;;;;;;4901876;28;83100;-70
2022/08/02 15:20:03;;;;;;;1.48;0.77;;;29.10;52.60;;;;;;4902603;28;82421;-72
2022/08/02 15:22:29;;;;;;;2.20;0.88;;;29.20;52.40;;;;;;4901192;28;81943;-70
2022/08/02 15:24:55;;;;;;;1.30;0.82;;;29.30;51.90;;;;;;4902370;28;82117;-71
2022/08/02 15:27:21;;;;;;;1.75;0.90;;;29.10;51.50;;;;;;4898420;28;82193;-71
2022/08/02 15:29:47;;;;;;;3.83;0.82;;;29.20;51.70;;;;;;4901197;28;81885;-75
2022/08/02 15:32:15;;;;;;;2.08;0.65;;;29.20;52.30;;;;;;4902522;28;82744;-73
2022/08/02 15:34:41;;;;;;;1.40;0.73;;;29.10;51.60;;;;;;4898436;28;82275;-71
2022/08/02 15:37:07;;;;;;;1.48;0.90;;;29.00;49.90;;;;;;4900491;28;82050;-75
2022/08/02 15:39:32;;;;;;;1.70;0.60;;;29.10;51.40;;;;;;4900342;28;83164;-73
2022/08/02 15:41:58;;;;;;;2.25;0.80;;;29.20;51.30;;;;;;4900811;28;82373;-73
2022/08/02 15:44:24;;;;;;;2.35;1.20;;;29.10;52.30;;;;;;4900079;28;82253;-74
2022/08/02 15:46:50;;;;;;;4.85;1.15;;;29.20;52.50;;;;;;4899300;28;82368;-72
2022/08/02 15:49:16;;;;;;;3.25;0.88;;;28.90;52.60;;;;;;4901336;28;82175;-70